Nearby METAR Reports

 

KCOS - Colorado Springs, Colorado, USA
Distance from station: S 6mi, 9km
Updated: 11/22/2018 2:54am
Clear
Clear
 Wind from NE
Wind: NE 10 mph , 17 km/h
Temperature: 27°F , -3°C
Wind Chill: 18°F , -8°C
Dew Point: 18°F , -8°C
Humidity: 69%
Barometer: 30.13 inHg , 1020.3 hPa
Clouds: Clear
Visibility: 10 miles , 16 km
2018/11/22 09:54 KCOS 220954Z 04009KT 10SM CLR M03/M08 A3013 RMK AO2 SLP198 T10331083
KAFF - Usaf Academy/Cos, Colorado, USA
Distance from station: NW 7mi, 12km
Updated: 11/22/2018 2:58am
Clear
Clear
 Wind from W
Wind: W 6 mph , 9 km/h
Temperature: 30°F , -1°C
Wind Chill: 24°F , -4°C
Dew Point: 12°F , -11°C
Humidity: 47%
Barometer: 30.12 inHg , 1020 hPa
Clouds: Clear
Visibility: 10 miles , 16 km
2018/11/22 09:58 KAFF 220958Z AUTO 26005KT 10SM CLR M01/M11 A3012 RMK AO2 SLP178 T10131109
 
KFLY - Co Spngs Meadow, Colorado, USA
Distance from station: ENE 8mi, 13km
Updated: 11/22/2018 3:35am
Clear
Clear
 Wind from NW
Wind: NW 8 mph , 13 km/h
Temperature: 32°F , 0°C
Wind Chill: 25°F , -4°C
Dew Point: 7°F , -14°C
Humidity: 34%
Barometer: 30.13 inHg , 1020.3 hPa
Clouds: Clear
Visibility: 7 miles , 11 km
2018/11/22 10:35 KFLY 221035Z AUTO 32007KT 7SM CLR 00/M14 A3013 RMK AO2 T00031136
KFCS - Fort Carson, Colorado, USA
Distance from station: S 17mi, 27km
Updated: 11/22/2018 2:58am
Clear
Clear
 Wind from N
Wind: N 12 mph , 19 km/h
Temperature: 27°F , -3°C
Wind Chill: 16°F , -9°C
Dew Point: 14°F , -10°C
Humidity: 59%
Barometer: 30.11 inHg , 1019.6 hPa
Clouds: Clear
Visibility: 10 miles , 16 km
2018/11/22 09:58 KFCS 220958Z AUTO 35010KT 10SM CLR M03/M10 A3011 RMK AO2 SLP210
 
KMNH - Monument/Elbert, Colorado, USA
Distance from station: N 22mi, 35km
Updated: 11/22/2018 3:24am
Clear
Clear
 Wind from SSW
Wind: SSW 8 mph , 13 km/h
Temperature: 34°F , 1°C
Wind Chill: 27°F , -3°C
Dew Point: 9°F , -13°C
Humidity: 35%
Barometer: 30.14 inHg , 1020.7 hPa
Clouds: Clear
Visibility: 10 miles , 16 km
2018/11/22 10:24 KMNH 221024Z AUTO 20007KT 10SM CLR 01/M13 A3014 RMK AO2
K1V6 - Canon City, Colorado, USA
Distance from station: SSW 39mi, 62km
Updated: 11/22/2018 3:30am
Clear
Clear
 Wind from W
Wind: W 13 mph , 20 km/h
Temperature: 41°F , 5°C
Wind Chill: 34°F , 1°C
Dew Point: 14°F , -10°C
Humidity: 33%
Barometer: 30.12 inHg , 1020 hPa
Clouds: Clear
Visibility: 10 miles , 16 km
2018/11/22 10:30 K1V6 221030Z AUTO 27011KT 10SM CLR 05/M10 A3012 RMK AO2
 
KPUB - Pueblo, Colorado, USA
Distance from station: SSE 44mi, 71km
Updated: 11/22/2018 2:53am
Clear
Clear
 Wind from W
Wind: W 6 mph , 9 km/h
Temperature: 25°F , -4°C
Wind Chill: 18°F , -8°C
Dew Point: 19°F , -7°C
Humidity: 80%
Barometer: 30.12 inHg , 1020 hPa
Clouds: Clear
Visibility: 10 miles , 16 km
2018/11/22 09:53 KPUB 220953Z AUTO 28005KT 10SM CLR M04/M07 A3012 RMK AO2 SLP193 T10441072
KAPA - Denver/Arapahoe, Colorado, USA
Distance from station: N 47mi, 75km
Updated: 11/22/2018 2:53am
Clear
Clear
 Wind from calm
Wind: Calm
Temperature: 36°F , 2°C
Dew Point: 10°F , -12°C
Humidity: 35%
Barometer: 30.10 inHg , 1019.3 hPa
Clouds: Clear
Visibility: 10 miles , 16 km
2018/11/22 09:53 KAPA 220953Z 00000KT 10SM CLR 02/M12 A3010 RMK AO2 SLP179 T00171122